sensor_id;sensor_type;location;lat;lon;timestamp;pressure;altitude;pressure_sealevel;temperature;humidity
32243;BME280;18731;42.830;24.390;2022-09-13T03:01:00;94272.25;;;13.88;82.98
32243;BME280;18731;42.830;24.390;2022-09-13T03:03:26;94279.59;;;13.91;82.89
32243;BME280;18731;42.830;24.390;2022-09-13T03:05:52;94289.56;;;13.90;83.02
32243;BME280;18731;42.830;24.390;2022-09-13T03:08:19;94264.91;;;13.84;82.47
32243;BME280;18731;42.830;24.390;2022-09-13T03:13:40;94267.09;;;13.79;83.05
32243;BME280;18731;42.830;24.390;2022-09-13T03:16:28;94285.38;;;13.93;82.95
32243;BME280;18731;42.830;24.390;2022-09-13T03:19:21;94282.63;;;13.70;83.57
32243;BME280;18731;42.830;24.390;2022-09-13T03:24:41;94274.31;;;13.75;83.96
32243;BME280;18731;42.830;24.390;2022-09-13T03:29:57;94279.81;;;13.82;84.39
32243;BME280;18731;42.830;24.390;2022-09-13T03:35:31;94278.41;;;13.88;83.74
32243;BME280;18731;42.830;24.390;2022-09-13T03:38:14;94280.72;;;13.90;83.36
32243;BME280;18731;42.830;24.390;2022-09-13T03:40:51;94278.03;;;13.90;83.10
32243;BME280;18731;42.830;24.390;2022-09-13T03:43:26;94280.81;;;13.93;83.52
32243;BME280;18731;42.830;24.390;2022-09-13T03:46:05;94276.13;;;13.90;83.64
32243;BME280;18731;42.830;24.390;2022-09-13T03:48:38;94286.09;;;13.90;83.31
32243;BME280;18731;42.830;24.390;2022-09-13T03:51:06;94286.03;;;13.86;83.42
32243;BME280;18731;42.830;24.390;2022-09-13T03:53:36;94285.94;;;13.82;83.75
32243;BME280;18731;42.830;24.390;2022-09-13T03:56:14;94273.59;;;13.78;83.91
32243;BME280;18731;42.830;24.390;2022-09-13T03:58:40;94286.16;;;13.93;83.59
32243;BME280;18731;42.830;24.390;2022-09-13T04:01:06;94288.50;;;13.95;83.47
32243;BME280;18731;42.830;24.390;2022-09-13T04:03:33;94278.41;;;13.88;83.41
32243;BME280;18731;42.830;24.390;2022-09-13T04:05:59;94286.09;;;13.90;83.27
32243;BME280;18731;42.830;24.390;2022-09-13T04:08:24;94287.66;;;13.91;83.31
32243;BME280;18731;42.830;24.390;2022-09-13T04:10:50;94288.56;;;13.98;83.31
32243;BME280;18731;42.830;24.390;2022-09-13T04:13:19;94282.34;;;13.94;83.26
32243;BME280;18731;42.830;24.390;2022-09-13T04:15:47;94292.31;;;13.94;82.80
32243;BME280;18731;42.830;24.390;2022-09-13T04:18:15;94281.22;;;13.95;83.04
32243;BME280;18731;42.830;24.390;2022-09-13T04:20:41;94276.84;;;13.87;83.26
32243;BME280;18731;42.830;24.390;2022-09-13T04:23:06;94282.50;;;14.01;83.66
32243;BME280;18731;42.830;24.390;2022-09-13T04:25:32;94273.94;;;13.96;83.73
32243;BME280;18731;42.830;24.390;2022-09-13T04:27:58;94277.69;;;13.91;83.57
32243;BME280;18731;42.830;24.390;2022-09-13T04:30:27;94289.13;;;14.07;82.45
32243;BME280;18731;42.830;24.390;2022-09-13T04:32:53;94276.22;;;13.94;81.50
32243;BME280;18731;42.830;24.390;2022-09-13T04:35:22;94285.09;;;13.98;81.98
32243;BME280;18731;42.830;24.390;2022-09-13T04:37:48;94290.97;;;14.03;82.07
32243;BME280;18731;42.830;24.390;2022-09-13T04:40:14;94295.34;;;14.11;82.41
32243;BME280;18731;42.830;24.390;2022-09-13T04:42:39;94291.09;;;14.10;83.04
32243;BME280;18731;42.830;24.390;2022-09-13T04:45:05;94297.44;;;14.22;82.89
32243;BME280;18731;42.830;24.390;2022-09-13T04:47:31;94294.06;;;14.25;82.94
32243;BME280;18731;42.830;24.390;2022-09-13T04:49:57;94290.88;;;14.19;83.24
32243;BME280;18731;42.830;24.390;2022-09-13T04:52:23;94296.88;;;14.32;82.63
32243;BME280;18731;42.830;24.390;2022-09-13T04:54:49;94303.78;;;14.33;82.40
32243;BME280;18731;42.830;24.390;2022-09-13T04:57:15;94298.00;;;14.31;81.99
32243;BME280;18731;42.830;24.390;2022-09-13T04:59:43;94300.03;;;14.37;82.46
32243;BME280;18731;42.830;24.390;2022-09-13T05:02:09;94304.03;;;14.43;82.29
32243;BME280;18731;42.830;24.390;2022-09-13T05:04:35;94292.34;;;14.36;81.52
32243;BME280;18731;42.830;24.390;2022-09-13T05:07:01;94304.50;;;14.49;81.20
32243;BME280;18731;42.830;24.390;2022-09-13T05:09:26;94292.34;;;14.36;80.71
32243;BME280;18731;42.830;24.390;2022-09-13T05:11:52;94312.56;;;14.49;80.10
32243;BME280;18731;42.830;24.390;2022-09-13T05:14:18;94315.97;;;14.46;80.65
32243;BME280;18731;42.830;24.390;2022-09-13T05:16:43;94314.47;;;14.48;80.50
32243;BME280;18731;42.830;24.390;2022-09-13T05:19:10;94313.81;;;14.55;80.20
32243;BME280;18731;42.830;24.390;2022-09-13T05:21:36;94306.91;;;14.54;80.45
32243;BME280;18731;42.830;24.390;2022-09-13T05:24:02;94306.66;;;14.63;80.21
32243;BME280;18731;42.830;24.390;2022-09-13T05:26:29;94318.84;;;14.79;79.95
32243;BME280;18731;42.830;24.390;2022-09-13T05:28:58;94313.22;;;14.88;79.68
32243;BME280;18731;42.830;24.390;2022-09-13T05:31:33;94317.13;;;14.91;79.71
32243;BME280;18731;42.830;24.390;2022-09-13T05:34:02;94309.16;;;14.98;79.02
32243;BME280;18731;42.830;24.390;2022-09-13T05:36:28;94306.59;;;15.05;77.20
32243;BME280;18731;42.830;24.390;2022-09-13T05:38:54;94284.25;;;15.01;77.69
32243;BME280;18731;42.830;24.390;2022-09-13T05:41:20;94316.00;;;15.18;77.44
32243;BME280;18731;42.830;24.390;2022-09-13T05:43:46;94306.94;;;15.26;76.77
32243;BME280;18731;42.830;24.390;2022-09-13T05:46:14;94303.56;;;15.33;76.55
32243;BME280;18731;42.830;24.390;2022-09-13T05:48:41;94314.13;;;15.45;76.24
32243;BME280;18731;42.830;24.390;2022-09-13T05:51:11;94310.03;;;15.55;75.88
32243;BME280;18731;42.830;24.390;2022-09-13T05:53:38;94294.56;;;15.48;76.58
32243;BME280;18731;42.830;24.390;2022-09-13T05:56:08;94317.41;;;15.58;77.26
32243;BME280;18731;42.830;24.390;2022-09-13T05:58:38;94318.66;;;15.64;75.82
32243;BME280;18731;42.830;24.390;2022-09-13T06:01:04;94321.47;;;15.71;75.97
32243;BME280;18731;42.830;24.390;2022-09-13T06:03:29;94292.22;;;15.69;75.53
32243;BME280;18731;42.830;24.390;2022-09-13T06:05:56;94317.50;;;15.91;75.29
32243;BME280;18731;42.830;24.390;2022-09-13T06:08:26;94304.91;;;15.99;74.39
32243;BME280;18731;42.830;24.390;2022-09-13T06:11:06;94312.03;;;16.18;72.77
32243;BME280;18731;42.830;24.390;2022-09-13T06:13:32;94319.97;;;16.37;72.59
32243;BME280;18731;42.830;24.390;2022-09-13T06:16:00;94311.63;;;16.49;71.68
32243;BME280;18731;42.830;24.390;2022-09-13T06:18:26;94300.81;;;16.46;69.75
32243;BME280;18731;42.830;24.390;2022-09-13T06:21:16;94311.66;;;16.53;69.46
32243;BME280;18731;42.830;24.390;2022-09-13T06:23:44;94312.09;;;16.58;70.84
32243;BME280;18731;42.830;24.390;2022-09-13T06:26:12;94319.69;;;16.83;70.89
32243;BME280;18731;42.830;24.390;2022-09-13T06:28:38;94320.78;;;17.22;69.26
32243;BME280;18731;42.830;24.390;2022-09-13T06:31:06;94312.28;;;17.20;67.98
32243;BME280;18731;42.830;24.390;2022-09-13T06:33:34;94317.56;;;17.06;67.71
32243;BME280;18731;42.830;24.390;2022-09-13T06:36:04;94329.16;;;17.10;65.68
32243;BME280;18731;42.830;24.390;2022-09-13T06:38:31;94328.50;;;17.24;63.10
32243;BME280;18731;42.830;24.390;2022-09-13T06:41:04;94340.78;;;17.18;61.74
32243;BME280;18731;42.830;24.390;2022-09-13T06:43:31;94339.84;;;16.99;62.31
32243;BME280;18731;42.830;24.390;2022-09-13T06:46:02;94342.94;;;16.98;63.16
32243;BME280;18731;42.830;24.390;2022-09-13T06:48:37;94345.97;;;16.93;64.08
32243;BME280;18731;42.830;24.390;2022-09-13T06:51:07;94346.69;;;16.90;64.83
32243;BME280;18731;42.830;24.390;2022-09-13T06:53:33;94341.34;;;16.93;64.58
32243;BME280;18731;42.830;24.390;2022-09-13T06:56:04;94347.84;;;17.33;61.30
32243;BME280;18731;42.830;24.390;2022-09-13T06:58:31;94342.84;;;17.35;61.34
32243;BME280;18731;42.830;24.390;2022-09-13T07:01:26;94341.16;;;17.16;60.97
32243;BME280;18731;42.830;24.390;2022-09-13T07:03:56;94331.59;;;17.26;60.71
32243;BME280;18731;42.830;24.390;2022-09-13T07:06:24;94349.41;;;17.34;60.51
32243;BME280;18731;42.830;24.390;2022-09-13T07:08:54;94345.56;;;17.39;59.74
32243;BME280;18731;42.830;24.390;2022-09-13T07:11:22;94345.19;;;17.40;61.26
32243;BME280;18731;42.830;24.390;2022-09-13T07:13:52;94361.75;;;17.39;60.95
32243;BME280;18731;42.830;24.390;2022-09-13T07:16:20;94350.47;;;17.22;61.73
32243;BME280;18731;42.830;24.390;2022-09-13T07:18:52;94364.28;;;17.17;63.42
32243;BME280;18731;42.830;24.390;2022-09-13T07:21:19;94370.91;;;17.27;64.19
32243;BME280;18731;42.830;24.390;2022-09-13T07:23:45;94366.22;;;17.17;63.97
32243;BME280;18731;42.830;24.390;2022-09-13T07:26:10;94366.09;;;17.06;62.77
32243;BME280;18731;42.830;24.390;2022-09-13T07:28:44;94362.94;;;17.41;63.09
32243;BME280;18731;42.830;24.390;2022-09-13T07:31:13;94362.03;;;17.74;60.45
32243;BME280;18731;42.830;24.390;2022-09-13T07:33:40;94365.16;;;17.80;60.01
32243;BME280;18731;42.830;24.390;2022-09-13T07:36:07;94342.81;;;17.83;58.93
32243;BME280;18731;42.830;24.390;2022-09-13T07:38:34;94357.97;;;18.02;60.15
32243;BME280;18731;42.830;24.390;2022-09-13T07:41:00;94362.91;;;17.89;58.64
32243;BME280;18731;42.830;24.390;2022-09-13T07:43:27;94369.06;;;17.86;59.18
32243;BME280;18731;42.830;24.390;2022-09-13T07:46:01;94362.44;;;17.76;60.44
32243;BME280;18731;42.830;24.390;2022-09-13T07:48:28;94366.56;;;17.63;61.72
32243;BME280;18731;42.830;24.390;2022-09-13T07:53:26;94360.13;;;17.27;61.75
32243;BME280;18731;42.830;24.390;2022-09-13T07:55:53;94383.22;;;17.24;63.13
32243;BME280;18731;42.830;24.390;2022-09-13T07:58:19;94380.38;;;17.07;63.93
32243;BME280;18731;42.830;24.390;2022-09-13T08:00:45;94378.44;;;17.07;63.07
32243;BME280;18731;42.830;24.390;2022-09-13T08:03:10;94383.09;;;17.10;64.08
32243;BME280;18731;42.830;24.390;2022-09-13T08:05:40;94364.09;;;16.96;62.53
32243;BME280;18731;42.830;24.390;2022-09-13T08:08:06;94368.34;;;16.97;63.72
32243;BME280;18731;42.830;24.390;2022-09-13T08:10:32;94386.09;;;17.01;61.74
32243;BME280;18731;42.830;24.390;2022-09-13T08:12:58;94388.94;;;16.79;63.00
32243;BME280;18731;42.830;24.390;2022-09-13T08:15:25;94381.47;;;17.02;62.63
32243;BME280;18731;42.830;24.390;2022-09-13T08:17:50;94370.59;;;17.35;61.54
32243;BME280;18731;42.830;24.390;2022-09-13T08:20:19;94383.06;;;17.51;59.61
32243;BME280;18731;42.830;24.390;2022-09-13T08:22:45;94377.63;;;18.02;57.71
32243;BME280;18731;42.830;24.390;2022-09-13T08:25:10;94375.56;;;18.43;58.09
32243;BME280;18731;42.830;24.390;2022-09-13T08:27:36;94377.31;;;19.19;56.61
32243;BME280;18731;42.830;24.390;2022-09-13T08:30:02;94358.00;;;19.24;53.28
32243;BME280;18731;42.830;24.390;2022-09-13T08:32:29;94358.03;;;19.67;53.18
32243;BME280;18731;42.830;24.390;2022-09-13T08:34:55;94366.13;;;19.67;52.31
32243;BME280;18731;42.830;24.390;2022-09-13T08:37:22;94363.03;;;19.72;50.26
32243;BME280;18731;42.830;24.390;2022-09-13T08:39:47;94367.25;;;19.94;51.67
32243;BME280;18731;42.830;24.390;2022-09-13T08:44:58;94349.94;;;20.79;50.73
32243;BME280;18731;42.830;24.390;2022-09-13T08:49:51;94360.72;;;20.97;48.16
32243;BME280;18731;42.830;24.390;2022-09-13T08:52:29;94358.50;;;20.74;46.91
32243;BME280;18731;42.830;24.390;2022-09-13T08:54:57;94358.09;;;20.82;49.94
32243;BME280;18731;42.830;24.390;2022-09-13T08:57:35;94355.63;;;21.06;47.23
32243;BME280;18731;42.830;24.390;2022-09-13T09:00:30;94355.53;;;20.40;47.24
32243;BME280;18731;42.830;24.390;2022-09-13T09:03:22;94358.75;;;19.88;48.50
32243;BME280;18731;42.830;24.390;2022-09-13T09:05:52;94351.75;;;20.05;49.30
32243;BME280;18731;42.830;24.390;2022-09-13T09:08:23;94354.75;;;20.46;48.07
32243;BME280;18731;42.830;24.390;2022-09-13T09:10:53;94351.31;;;20.21;49.29
32243;BME280;18731;42.830;24.390;2022-09-13T09:13:32;94352.53;;;19.99;49.99
32243;BME280;18731;42.830;24.390;2022-09-13T09:16:10;94351.78;;;19.87;50.86
32243;BME280;18731;42.830;24.390;2022-09-13T09:18:44;94350.28;;;19.76;50.90
32243;BME280;18731;42.830;24.390;2022-09-13T09:21:16;94347.97;;;19.56;51.43
32243;BME280;18731;42.830;24.390;2022-09-13T09:23:48;94346.41;;;19.38;51.91
32243;BME280;18731;42.830;24.390;2022-09-13T09:26:23;94347.53;;;18.98;52.03
32243;BME280;18731;42.830;24.390;2022-09-13T09:29:18;94344.78;;;18.69;52.46
32243;BME280;18731;42.830;24.390;2022-09-13T09:37:30;94344.09;;;19.57;51.87
32243;BME280;18731;42.830;24.390;2022-09-13T09:40:02;94331.63;;;20.03;49.86
32243;BME280;18731;42.830;24.390;2022-09-13T09:42:41;94335.81;;;20.32;49.37
32243;BME280;18731;42.830;24.390;2022-09-13T09:47:52;94331.56;;;20.24;49.93
32243;BME280;18731;42.830;24.390;2022-09-13T09:50:26;94325.03;;;20.14;48.97
32243;BME280;18731;42.830;24.390;2022-09-13T09:53:07;94315.03;;;19.86;49.53
32243;BME280;18731;42.830;24.390;2022-09-13T09:58:05;94317.81;;;19.30;49.96
32243;BME280;18731;42.830;24.390;2022-09-13T10:00:35;94323.59;;;19.60;52.80
32243;BME280;18731;42.830;24.390;2022-09-13T10:03:04;94317.75;;;19.79;52.26
32243;BME280;18731;42.830;24.390;2022-09-13T10:05:30;94311.53;;;19.97;49.12
32243;BME280;18731;42.830;24.390;2022-09-13T10:08:07;94322.25;;;20.32;51.02
32243;BME280;18731;42.830;24.390;2022-09-13T10:10:54;94309.56;;;20.95;46.78
32243;BME280;18731;42.830;24.390;2022-09-13T10:13:22;94269.28;;;20.94;49.05
32243;BME280;18731;42.830;24.390;2022-09-13T10:15:57;94312.06;;;21.72;45.38
32243;BME280;18731;42.830;24.390;2022-09-13T10:18:25;94302.84;;;22.37;45.47
32243;BME280;18731;42.830;24.390;2022-09-13T10:21:25;94308.47;;;23.11;47.02
32243;BME280;18731;42.830;24.390;2022-09-13T10:24:19;94288.91;;;23.90;41.56
32243;BME280;18731;42.830;24.390;2022-09-13T10:26:45;94298.38;;;24.45;42.58
32243;BME280;18731;42.830;24.390;2022-09-13T10:29:15;94286.91;;;24.33;42.47
32243;BME280;18731;42.830;24.390;2022-09-13T10:31:44;94290.56;;;24.83;41.33
32243;BME280;18731;42.830;24.390;2022-09-13T10:34:28;94292.25;;;25.45;37.91
32243;BME280;18731;42.830;24.390;2022-09-13T10:37:11;94298.91;;;25.77;38.72
32243;BME280;18731;42.830;24.390;2022-09-13T10:42:20;94277.81;;;24.76;36.88
32243;BME280;18731;42.830;24.390;2022-09-13T10:47:24;94291.25;;;23.18;40.05
32243;BME280;18731;42.830;24.390;2022-09-13T10:49:56;94281.69;;;22.79;41.76
32243;BME280;18731;42.830;24.390;2022-09-13T10:54:53;94288.91;;;22.32;43.52
32243;BME280;18731;42.830;24.390;2022-09-13T10:57:34;94295.59;;;21.90;45.97
32243;BME280;18731;42.830;24.390;2022-09-13T11:00:04;94289.88;;;21.80;46.95
32243;BME280;18731;42.830;24.390;2022-09-13T11:10:58;94282.81;;;22.24;44.33
32243;BME280;18731;42.830;24.390;2022-09-13T11:15:59;94273.50;;;22.22;44.93
32243;BME280;18731;42.830;24.390;2022-09-13T11:27:01;94278.34;;;21.69;47.44
32243;BME280;18731;42.830;24.390;2022-09-13T11:38:16;94278.34;;;21.69;44.98
32243;BME280;18731;42.830;24.390;2022-09-13T11:46:13;94268.50;;;20.93;48.04
32243;BME280;18731;42.830;24.390;2022-09-13T11:48:51;94268.44;;;21.48;48.56
32243;BME280;18731;42.830;24.390;2022-09-13T12:01:33;94266.03;;;22.60;43.33
32243;BME280;18731;42.830;24.390;2022-09-13T12:04:02;94275.59;;;22.41;42.50
32243;BME280;18731;42.830;24.390;2022-09-13T12:06:34;94266.72;;;22.06;42.55
32243;BME280;18731;42.830;24.390;2022-09-13T12:09:06;94270.25;;;21.62;44.85
32243;BME280;18731;42.830;24.390;2022-09-13T12:11:38;94262.72;;;21.39;45.38
32243;BME280;18731;42.830;24.390;2022-09-13T12:14:14;94265.91;;;21.31;48.02
32243;BME280;18731;42.830;24.390;2022-09-13T12:16:47;94260.31;;;21.48;47.83
32243;BME280;18731;42.830;24.390;2022-09-13T12:19:54;94268.03;;;21.50;46.74
32243;BME280;18731;42.830;24.390;2022-09-13T12:22:13;94267.66;;;21.03;45.69
32243;BME280;18731;42.830;24.390;2022-09-13T12:24:50;94268.13;;;20.91;51.94
32243;BME280;18731;42.830;24.390;2022-09-13T12:27:26;94256.22;;;20.71;53.70
32243;BME280;18731;42.830;24.390;2022-09-13T12:30:15;94254.78;;;20.55;53.85
32243;BME280;18731;42.830;24.390;2022-09-13T12:32:42;94266.41;;;20.52;54.70
32243;BME280;18731;42.830;24.390;2022-09-13T12:35:28;94264.41;;;20.64;57.52
32243;BME280;18731;42.830;24.390;2022-09-13T12:41:13;94257.81;;;21.20;49.98
32243;BME280;18731;42.830;24.390;2022-09-13T12:43:48;94260.06;;;22.11;49.82
32243;BME280;18731;42.830;24.390;2022-09-13T13:00:24;94240.16;;;24.51;38.29
32243;BME280;18731;42.830;24.390;2022-09-13T13:03:15;94239.34;;;23.75;39.00
32243;BME280;18731;42.830;24.390;2022-09-13T13:05:46;94236.13;;;23.80;39.57
32243;BME280;18731;42.830;24.390;2022-09-13T13:11:06;94246.13;;;23.87;39.46
32243;BME280;18731;42.830;24.390;2022-09-13T13:13:37;94243.69;;;23.92;37.85
32243;BME280;18731;42.830;24.390;2022-09-13T13:16:25;94251.09;;;22.98;41.22
32243;BME280;18731;42.830;24.390;2022-09-13T13:18:57;94243.69;;;22.72;41.65
32243;BME280;18731;42.830;24.390;2022-09-13T13:21:34;94257.00;;;22.36;41.74
32243;BME280;18731;42.830;24.390;2022-09-13T13:26:42;94250.63;;;22.19;41.06
32243;BME280;18731;42.830;24.390;2022-09-13T13:29:25;94257.75;;;22.40;41.97
32243;BME280;18731;42.830;24.390;2022-09-13T13:34:42;94262.25;;;21.00;42.94
32243;BME280;18731;42.830;24.390;2022-09-13T13:39:42;94243.41;;;20.02;45.26
32243;BME280;18731;42.830;24.390;2022-09-13T13:42:12;94251.88;;;20.14;49.71
32243;BME280;18731;42.830;24.390;2022-09-13T13:55:38;94253.97;;;20.62;46.29
32243;BME280;18731;42.830;24.390;2022-09-13T14:00:54;94252.34;;;20.72;46.92
32243;BME280;18731;42.830;24.390;2022-09-13T14:06:34;94264.66;;;20.87;47.82
32243;BME280;18731;42.830;24.390;2022-09-13T14:09:07;94261.47;;;20.99;46.61
32243;BME280;18731;42.830;24.390;2022-09-13T14:20:12;94260.91;;;22.01;41.85
32243;BME280;18731;42.830;24.390;2022-09-13T14:22:40;94261.72;;;21.98;43.59
32243;BME280;18731;42.830;24.390;2022-09-13T14:27:45;94266.50;;;22.24;43.14
32243;BME280;18731;42.830;24.390;2022-09-13T14:30:28;94274.78;;;23.01;42.92
32243;BME280;18731;42.830;24.390;2022-09-13T14:32:56;94275.56;;;22.44;42.48
32243;BME280;18731;42.830;24.390;2022-09-13T14:38:17;94268.53;;;22.74;39.72
32243;BME280;18731;42.830;24.390;2022-09-13T14:40:53;94267.94;;;22.90;42.55
32243;BME280;18731;42.830;24.390;2022-09-13T14:43:25;94260.19;;;22.88;41.01
32243;BME280;18731;42.830;24.390;2022-09-13T14:45:55;94266.03;;;23.14;39.79
32243;BME280;18731;42.830;24.390;2022-09-13T14:48:31;94263.16;;;22.97;41.06
32243;BME280;18731;42.830;24.390;2022-09-13T14:51:06;94259.66;;;22.70;44.39
32243;BME280;18731;42.830;24.390;2022-09-13T14:53:39;94254.25;;;22.39;43.98
32243;BME280;18731;42.830;24.390;2022-09-13T14:56:10;94257.09;;;21.61;43.12
32243;BME280;18731;42.830;24.390;2022-09-13T14:58:44;94260.44;;;21.34;45.13
32243;BME280;18731;42.830;24.390;2022-09-13T15:01:15;94268.75;;;21.09;44.82
32243;BME280;18731;42.830;24.390;2022-09-13T15:03:43;94263.09;;;20.90;47.84
32243;BME280;18731;42.830;24.390;2022-09-13T15:06:30;94258.97;;;20.64;48.22
32243;BME280;18731;42.830;24.390;2022-09-13T15:09:21;94258.72;;;20.37;50.10
32243;BME280;18731;42.830;24.390;2022-09-13T15:14:29;94263.63;;;19.72;51.17
32243;BME280;18731;42.830;24.390;2022-09-13T15:17:06;94268.31;;;19.54;52.32
32243;BME280;18731;42.830;24.390;2022-09-13T15:19:48;94271.81;;;19.22;54.27
32243;BME280;18731;42.830;24.390;2022-09-13T15:22:23;94259.44;;;19.00;53.55
32243;BME280;18731;42.830;24.390;2022-09-13T15:24:55;94265.63;;;18.86;55.72
32243;BME280;18731;42.830;24.390;2022-09-13T15:27:25;94273.66;;;18.58;56.12
32243;BME280;18731;42.830;24.390;2022-09-13T15:29:56;94266.66;;;18.36;57.52
32243;BME280;18731;42.830;24.390;2022-09-13T15:32:41;94268.13;;;18.19;58.52
32243;BME280;18731;42.830;24.390;2022-09-13T15:35:40;94283.94;;;18.17;57.41
32243;BME280;18731;42.830;24.390;2022-09-13T15:38:29;94284.97;;;17.87;57.27
32243;BME280;18731;42.830;24.390;2022-09-13T15:41:16;94269.47;;;17.70;57.93
32243;BME280;18731;42.830;24.390;2022-09-13T15:43:43;94282.22;;;17.73;59.41
32243;BME280;18731;42.830;24.390;2022-09-13T15:46:13;94289.38;;;17.48;59.07
32243;BME280;18731;42.830;24.390;2022-09-13T15:48:45;94283.91;;;17.37;59.59
32243;BME280;18731;42.830;24.390;2022-09-13T15:51:14;94293.13;;;17.32;60.88
32243;BME280;18731;42.830;24.390;2022-09-13T15:53:43;94292.63;;;17.16;60.88
32243;BME280;18731;42.830;24.390;2022-09-13T15:56:16;94296.00;;;17.06;60.77
32243;BME280;18731;42.830;24.390;2022-09-13T15:58:42;94291.97;;;16.86;62.22
32243;BME280;18731;42.830;24.390;2022-09-13T16:01:12;94296.63;;;16.89;62.78
32243;BME280;18731;42.830;24.390;2022-09-13T16:03:38;94300.47;;;16.88;63.53
32243;BME280;18731;42.830;24.390;2022-09-13T16:06:04;94303.88;;;16.81;63.26
32243;BME280;18731;42.830;24.390;2022-09-13T16:08:33;94297.66;;;16.74;63.46
32243;BME280;18731;42.830;24.390;2022-09-13T16:10:58;94314.94;;;16.69;64.23
32243;BME280;18731;42.830;24.390;2022-09-13T16:13:24;94300.88;;;16.53;64.62
32243;BME280;18731;42.830;24.390;2022-09-13T16:15:49;94311.28;;;16.54;65.15
32243;BME280;18731;42.830;24.390;2022-09-13T16:18:15;94308.47;;;16.44;65.40
32243;BME280;18731;42.830;24.390;2022-09-13T16:20:42;94303.75;;;16.33;65.47
32243;BME280;18731;42.830;24.390;2022-09-13T16:23:09;94313.69;;;16.26;65.63
32243;BME280;18731;42.830;24.390;2022-09-13T16:25:35;94319.75;;;16.19;65.11
32243;BME280;18731;42.830;24.390;2022-09-13T16:28:05;94272.38;;;15.81;65.80
32243;BME280;18731;42.830;24.390;2022-09-13T16:30:31;94318.00;;;16.00;65.83
32243;BME280;18731;42.830;24.390;2022-09-13T16:32:58;94303.53;;;15.82;66.65
32243;BME280;18731;42.830;24.390;2022-09-13T16:35:29;94326.28;;;15.88;66.37
32243;BME280;18731;42.830;24.390;2022-09-13T16:37:55;94324.66;;;15.80;66.65
32243;BME280;18731;42.830;24.390;2022-09-13T16:40:21;94326.06;;;15.70;67.15
32243;BME280;18731;42.830;24.390;2022-09-13T16:42:48;94318.09;;;15.55;67.98
32243;BME280;18731;42.830;24.390;2022-09-13T16:45:15;94328.16;;;15.58;67.36
32243;BME280;18731;42.830;24.390;2022-09-13T16:47:41;94328.34;;;15.45;67.45
32243;BME280;18731;42.830;24.390;2022-09-13T16:50:08;94341.31;;;15.40;67.37
32243;BME280;18731;42.830;24.390;2022-09-13T16:52:34;94342.28;;;15.28;67.33
32243;BME280;18731;42.830;24.390;2022-09-13T16:55:00;94348.28;;;15.18;67.85
32243;BME280;18731;42.830;24.390;2022-09-13T16:57:26;94341.91;;;15.03;68.45
32243;BME280;18731;42.830;24.390;2022-09-13T16:59:53;94356.81;;;15.01;68.77
32243;BME280;18731;42.830;24.390;2022-09-13T17:02:20;94351.69;;;14.92;69.37
32243;BME280;18731;42.830;24.390;2022-09-13T17:04:46;94353.78;;;14.79;70.52
32243;BME280;18731;42.830;24.390;2022-09-13T17:07:13;94364.09;;;14.77;70.48
32243;BME280;18731;42.830;24.390;2022-09-13T17:09:39;94366.38;;;14.75;70.09
32243;BME280;18731;42.830;24.390;2022-09-13T17:12:10;94374.38;;;14.72;70.58
32243;BME280;18731;42.830;24.390;2022-09-13T17:14:36;94369.88;;;14.57;70.86
32243;BME280;18731;42.830;24.390;2022-09-13T17:17:02;94375.59;;;14.55;70.49
32243;BME280;18731;42.830;24.390;2022-09-13T17:19:31;94381.03;;;14.59;70.23
32243;BME280;18731;42.830;24.390;2022-09-13T17:22:01;94380.75;;;14.44;70.49
32243;BME280;18731;42.830;24.390;2022-09-13T17:24:29;94389.00;;;14.36;71.58
32243;BME280;18731;42.830;24.390;2022-09-13T17:26:58;94400.00;;;14.11;72.90
32243;BME280;18731;42.830;24.390;2022-09-13T17:29:24;94388.13;;;13.93;74.03
32243;BME280;18731;42.830;24.390;2022-09-13T17:31:53;94395.63;;;14.03;73.27
32243;BME280;18731;42.830;24.390;2022-09-13T17:34:18;94389.69;;;13.94;72.91
32243;BME280;18731;42.830;24.390;2022-09-13T17:36:44;94415.47;;;13.99;73.75
32243;BME280;18731;42.830;24.390;2022-09-13T17:39:10;94409.50;;;13.90;74.07
32243;BME280;18731;42.830;24.390;2022-09-13T17:41:36;94417.22;;;13.91;73.84
32243;BME280;18731;42.830;24.390;2022-09-13T17:44:01;94402.50;;;13.85;73.19
32243;BME280;18731;42.830;24.390;2022-09-13T17:46:28;94433.72;;;13.93;72.95
32243;BME280;18731;42.830;24.390;2022-09-13T17:48:56;94436.19;;;13.82;73.87
32243;BME280;18731;42.830;24.390;2022-09-13T17:51:25;94443.56;;;13.70;75.08
32243;BME280;18731;42.830;24.390;2022-09-13T17:53:56;94441.13;;;13.65;75.74
32243;BME280;18731;42.830;24.390;2022-09-13T17:59:02;94447.44;;;13.72;75.24
32243;BME280;18731;42.830;24.390;2022-09-13T18:01:29;94443.97;;;13.72;75.75
32243;BME280;18731;42.830;24.390;2022-09-13T18:03:55;94429.81;;;13.56;76.09
32243;BME280;18731;42.830;24.390;2022-09-13T18:06:20;94414.00;;;13.50;75.83
32243;BME280;18731;42.830;24.390;2022-09-13T18:08:46;94455.13;;;13.74;75.90
32243;BME280;18731;42.830;24.390;2022-09-13T18:11:14;94445.69;;;13.80;75.35
32243;BME280;18731;42.830;24.390;2022-09-13T18:13:43;94440.19;;;13.73;75.43
32243;BME280;18731;42.830;24.390;2022-09-13T18:16:12;94460.50;;;13.74;75.73
32243;BME280;18731;42.830;24.390;2022-09-13T18:18:38;94462.75;;;13.72;75.87
32243;BME280;18731;42.830;24.390;2022-09-13T18:21:05;94468.28;;;13.79;75.36
32243;BME280;18731;42.830;24.390;2022-09-13T18:23:32;94458.09;;;13.69;75.25
32243;BME280;18731;42.830;24.390;2022-09-13T18:26:03;94463.44;;;13.69;75.43
32243;BME280;18731;42.830;24.390;2022-09-13T18:28:30;94448.50;;;13.52;76.16
32243;BME280;18731;42.830;24.390;2022-09-13T18:30:58;94453.25;;;13.59;75.98
32243;BME280;18731;42.830;24.390;2022-09-13T18:33:24;94468.72;;;13.65;75.68